Time;durP1;ratioP1;P1;durP2;ratioP2;P2;SDS_P1;SDS_P2;PMS_P1;PMS_P2;Temp;Humidity;BMP_temperature;BMP_pressure;BME280_temperature;BME280_humidity;BME280_pressure;Samples;Min_cycle;Max_cycle;Signal;HPM_P1;HPM_P2
2022/07/11 00:00:18;;;;;;;;;;;18.20;99.90;;;;;;5052096;28;19978;-69
2022/07/11 00:02:46;;;;;;;;;;;18.20;99.90;;;;;;5051863;28;20343;-69
2022/07/11 00:05:12;;;;;;;;;;;18.10;99.90;;;;;;5035672;28;19931;-69
2022/07/11 00:07:39;;;;;;;;;;;18.20;99.90;;;;;;5051621;28;19924;-69
2022/07/11 00:10:08;;;;;;;;;;;18.20;99.90;;;;;;5051701;28;19925;-69
2022/07/11 00:12:35;;;;;;;;;;;18.20;99.90;;;;;;5052092;28;19929;-69
2022/07/11 00:15:01;;;;;;;;;;;18.20;99.90;;;;;;5052022;28;19939;-69
2022/07/11 00:17:28;;;;;;;;;;;18.20;99.90;;;;;;5052278;28;19929;-69
2022/07/11 00:19:55;;;;;;;;;;;18.30;99.90;;;;;;5051479;28;19924;-69
2022/07/11 00:22:22;;;;;;;;;;;18.20;99.90;;;;;;5051245;28;19939;-69
2022/07/11 00:24:49;;;;;;;;;;;18.10;99.90;;;;;;5051643;28;19929;-69
2022/07/11 00:27:17;;;;;;;;;;;18.00;99.90;;;;;;5052114;28;19925;-70
2022/07/11 00:29:44;;;;;;;;;;;18.00;99.90;;;;;;5068090;28;20011;-69
2022/07/11 00:32:11;;;;;;;;;;;18.00;99.90;;;;;;5051969;28;19947;-69
2022/07/11 00:34:37;;;;;;;;;;;18.00;99.90;;;;;;5051630;28;19925;-69
2022/07/11 00:37:04;;;;;;;;;;;18.00;99.90;;;;;;5051301;28;20327;-70
2022/07/11 00:39:31;;;;;;;;;;;18.00;99.90;;;;;;5068143;28;20388;-70
2022/07/11 00:41:58;;;;;;;;;;;18.00;99.90;;;;;;5051825;28;20293;-69
2022/07/11 00:44:26;;;;;;;;;;;17.90;99.90;;;;;;5051658;28;19929;-70
2022/07/11 00:46:53;;;;;;;;;;;17.90;99.90;;;;;;5068263;28;20347;-69
2022/07/11 00:49:21;;;;;;;;;;;17.90;99.90;;;;;;5051179;28;20454;-69
2022/07/11 00:51:48;;;;;;;;;;;17.90;99.90;;;;;;5051451;28;20358;-69
2022/07/11 00:54:17;;;;;;;;;;;17.90;99.90;;;;;;5051540;28;19925;-70
2022/07/11 00:56:44;;;;;;;;;;;17.90;99.90;;;;;;5051125;28;19924;-69
2022/07/11 00:59:11;;;;;;;;;;;17.90;99.90;;;;;;5051123;28;19929;-69
2022/07/11 01:01:39;;;;;;;;;;;17.70;99.90;;;;;;5051257;28;20311;-69
2022/07/11 01:04:06;;;;;;;;;;;17.80;99.90;;;;;;5051200;28;19929;-69
2022/07/11 01:06:33;;;;;;;;;;;17.70;99.90;;;;;;5050963;28;19924;-70
2022/07/11 01:09:00;;;;;;;;;;;17.70;99.90;;;;;;5051034;28;19929;-69
2022/07/11 01:11:27;;;;;;;;;;;17.70;99.90;;;;;;5051090;28;20408;-69
2022/07/11 01:13:54;;;;;;;;;;;17.70;99.90;;;;;;5050971;28;19928;-69
2022/07/11 01:16:22;;;;;;;;;;;17.60;99.90;;;;;;5051095;28;19924;-70
2022/07/11 01:18:50;;;;;;;;;;;17.60;99.90;;;;;;5050811;28;19929;-69
2022/07/11 01:21:19;;;;;;;;;;;17.60;99.90;;;;;;5051137;28;19925;-69
2022/07/11 01:23:48;;;;;;;;;;;17.60;99.90;;;;;;5051068;28;19925;-70
2022/07/11 01:26:16;;;;;;;;;;;17.50;99.90;;;;;;5050916;28;19929;-69
2022/07/11 01:28:42;;;;;;;;;;;17.50;99.90;;;;;;5051141;28;19924;-70
2022/07/11 01:31:09;;;;;;;;;;;17.50;99.90;;;;;;5050414;28;19928;-69
2022/07/11 01:33:36;;;;;;;;;;;17.50;99.90;;;;;;5050970;28;19932;-69
2022/07/11 01:36:03;;;;;;;;;;;17.50;99.90;;;;;;5050802;28;19925;-69
2022/07/11 01:38:30;;;;;;;;;;;17.50;99.90;;;;;;5050891;28;19929;-69
2022/07/11 01:40:58;;;;;;;;;;;17.40;99.90;;;;;;5050727;28;19928;-69
2022/07/11 01:43:26;;;;;;;;;;;17.40;99.90;;;;;;5050819;28;19925;-69
2022/07/11 01:45:53;;;;;;;;;;;17.40;99.90;;;;;;5050839;28;19926;-69
2022/07/11 01:48:20;;;;;;;;;;;17.40;99.90;;;;;;5050741;28;19925;-69
2022/07/11 01:50:47;;;;;;;;;;;17.40;99.90;;;;;;5050491;28;19933;-69
2022/07/11 01:53:14;;;;;;;;;;;17.40;99.90;;;;;;5050730;28;19932;-69
2022/07/11 01:55:40;;;;;;;;;;;17.30;99.90;;;;;;5050774;28;19933;-70
2022/07/11 01:58:09;;;;;;;;;;;17.30;99.90;;;;;;5050858;28;19986;-69
2022/07/11 02:00:35;;;;;;;;;;;17.30;99.90;;;;;;5076556;22;20458;-63
2022/07/11 02:03:02;;;;;;;;;;;17.30;99.90;;;;;;5051090;28;20026;-67
2022/07/11 02:05:29;;;;;;;;;;;17.20;99.90;;;;;;5053672;28;19924;-66
2022/07/11 02:08:14;;;;;;;;;;;17.20;99.90;;;;;;5053685;28;20370;-66
2022/07/11 02:10:43;;;;;;;;;;;17.30;99.90;;;;;;5071600;28;20334;-68
2022/07/11 02:13:11;;;;;;;;;;;17.30;99.90;;;;;;5054556;28;19929;-67
2022/07/11 02:15:39;;;;;;;;;;;17.20;99.90;;;;;;5071716;28;20011;-67
2022/07/11 02:18:05;;;;;;;;;;;17.20;99.90;;;;;;5053995;28;19929;-67
2022/07/11 02:20:33;;;;;;;;;;;17.20;99.90;;;;;;5053254;28;19931;-66
2022/07/11 02:23:00;;;;;;;;;;;17.10;99.90;;;;;;5054224;28;19928;-68
2022/07/11 02:25:27;;;;;;;;;;;17.10;99.90;;;;;;5056168;28;19932;-66
2022/07/11 02:27:54;;;;;;;;;;;17.00;99.90;;;;;;5057392;28;19994;-67
2022/07/11 02:30:22;;;;;;;;;;;17.00;99.90;;;;;;5057211;28;19931;-67
2022/07/11 02:32:49;;;;;;;;;;;16.90;99.90;;;;;;5057403;28;19924;-66
2022/07/11 02:35:16;;;;;;;;;;;16.90;99.90;;;;;;5057538;28;19985;-67
2022/07/11 02:37:43;;;;;;;;;;;16.90;99.90;;;;;;5057672;28;19928;-67
2022/07/11 02:40:10;;;;;;;;;;;16.90;99.90;;;;;;5057078;28;20037;-66
2022/07/11 02:42:37;;;;;;;;;;;16.80;99.90;;;;;;5057243;28;19928;-66
2022/07/11 02:45:04;;;;;;;;;;;16.90;99.90;;;;;;5057242;28;19929;-67
2022/07/11 02:47:32;;;;;;;;;;;16.90;99.90;;;;;;5057357;28;19928;-67
2022/07/11 02:49:59;;;;;;;;;;;16.80;99.90;;;;;;5056902;28;19928;-67
2022/07/11 02:52:25;;;;;;;;;;;16.70;99.90;;;;;;5057021;28;19932;-66
2022/07/11 02:54:52;;;;;;;;;;;16.70;99.90;;;;;;5057043;28;20288;-66
2022/07/11 02:57:19;;;;;;;;;;;16.70;99.90;;;;;;5056969;28;19978;-66
2022/07/11 02:59:46;;;;;;;;;;;16.50;99.90;;;;;;5056650;28;19979;-67
2022/07/11 03:02:12;;;;;;;;;;;16.50;99.90;;;;;;5056686;28;19929;-67
2022/07/11 03:04:41;;;;;;;;;;;16.40;99.90;;;;;;5056677;28;19929;-66
2022/07/11 03:07:08;;;;;;;;;;;16.40;99.90;;;;;;5056537;28;19959;-67
2022/07/11 03:09:34;;;;;;;;;;;16.30;99.90;;;;;;5056485;28;19924;-66
2022/07/11 03:12:01;;;;;;;;;;;16.30;99.90;;;;;;5056623;28;19970;-66
2022/07/11 03:14:28;;;;;;;;;;;16.20;99.90;;;;;;5056499;28;20304;-67
2022/07/11 03:16:55;;;;;;;;;;;16.30;99.90;;;;;;5056903;28;19924;-67
2022/07/11 03:19:22;;;;;;;;;;;16.30;99.90;;;;;;5056073;28;20015;-66
2022/07/11 03:21:50;;;;;;;;;;;16.30;99.90;;;;;;5056546;28;19928;-66
2022/07/11 03:24:17;;;;;;;;;;;16.30;99.90;;;;;;5056515;28;19932;-67
2022/07/11 03:26:44;;;;;;;;;;;16.30;99.90;;;;;;5056435;28;19924;-66
2022/07/11 03:29:11;;;;;;;;;;;16.30;99.90;;;;;;5056329;28;19950;-66
2022/07/11 03:31:38;;;;;;;;;;;16.30;99.90;;;;;;5056416;28;19924;-66
2022/07/11 03:34:04;;;;;;;;;;;16.20;99.90;;;;;;5056532;28;20001;-67
2022/07/11 03:36:31;;;;;;;;;;;16.20;99.90;;;;;;5055299;28;19925;-67
2022/07/11 03:38:59;;;;;;;;;;;16.20;99.90;;;;;;5056118;28;19925;-66
2022/07/11 03:41:26;;;;;;;;;;;16.10;99.90;;;;;;5055889;28;20019;-67
2022/07/11 03:43:53;;;;;;;;;;;16.00;99.90;;;;;;5056420;28;19994;-67
2022/07/11 03:46:20;;;;;;;;;;;16.00;99.90;;;;;;5055945;28;19928;-66
2022/07/11 03:48:46;;;;;;;;;;;16.00;99.90;;;;;;5056067;28;19932;-67
2022/07/11 03:51:13;;;;;;;;;;;15.90;99.90;;;;;;5055739;28;20315;-67
2022/07/11 03:53:40;;;;;;;;;;;15.90;99.90;;;;;;5056109;28;19925;-66
2022/07/11 03:56:08;;;;;;;;;;;16.00;99.90;;;;;;5055609;28;19928;-67
2022/07/11 03:58:35;;;;;;;;;;;16.00;99.90;;;;;;5056163;28;19929;-66
2022/07/11 04:01:02;;;;;;;;;;;16.00;99.90;;;;;;5055600;28;19928;-67
2022/07/11 04:03:30;;;;;;;;;;;16.00;99.90;;;;;;5055457;28;20566;-66
2022/07/11 04:05:57;;;;;;;;;;;15.90;99.90;;;;;;5055206;28;19932;-66
2022/07/11 04:08:24;;;;;;;;;;;15.90;99.90;;;;;;5055703;28;19978;-66
2022/07/11 04:10:51;;;;;;;;;;;15.90;99.90;;;;;;5055495;28;19924;-67
2022/07/11 04:13:19;;;;;;;;;;;15.90;99.90;;;;;;5055806;28;19928;-67
2022/07/11 04:15:46;;;;;;;;;;;15.90;99.90;;;;;;5055574;28;19928;-66
2022/07/11 04:18:13;;;;;;;;;;;15.90;99.90;;;;;;5055570;28;20354;-67
2022/07/11 04:20:40;;;;;;;;;;;16.00;99.90;;;;;;5054970;28;19928;-67
2022/07/11 04:23:06;;;;;;;;;;;16.00;99.90;;;;;;5055720;28;19929;-67
2022/07/11 04:25:33;;;;;;;;;;;16.20;99.90;;;;;;5055579;28;19931;-67
2022/07/11 04:28:00;;;;;;;;;;;16.30;99.90;;;;;;5055240;28;19959;-67
2022/07/11 04:30:28;;;;;;;;;;;16.30;99.90;;;;;;5055131;28;19950;-66
2022/07/11 04:32:55;;;;;;;;;;;16.30;99.90;;;;;;5055261;28;19925;-67
2022/07/11 04:35:23;;;;;;;;;;;16.40;99.90;;;;;;5054980;28;19925;-66
2022/07/11 04:37:50;;;;;;;;;;;16.40;99.90;;;;;;5055366;28;19928;-66
2022/07/11 04:40:17;;;;;;;;;;;16.40;99.90;;;;;;5054728;28;19964;-66
2022/07/11 04:42:44;;;;;;;;;;;16.40;99.90;;;;;;5054910;28;19931;-66
2022/07/11 04:45:11;;;;;;;;;;;16.40;99.90;;;;;;5055207;28;19974;-67
2022/07/11 04:47:39;;;;;;;;;;;16.40;99.90;;;;;;5054437;28;20338;-66
2022/07/11 04:50:06;;;;;;;;;;;16.50;99.90;;;;;;5054641;28;20384;-66
2022/07/11 04:52:33;;;;;;;;;;;16.50;99.90;;;;;;5055063;28;19924;-67
2022/07/11 04:55:00;;;;;;;;;;;16.50;99.90;;;;;;5054688;28;20333;-67
2022/07/11 04:57:27;;;;;;;;;;;16.50;99.90;;;;;;5054891;28;20365;-67
2022/07/11 04:59:54;;;;;;;;;;;16.50;99.90;;;;;;5054436;28;19925;-67
2022/07/11 05:02:20;;;;;;;;;;;16.60;99.90;;;;;;5046952;28;20308;-67
2022/07/11 05:04:49;;;;;;;;;;;16.60;99.90;;;;;;5062089;28;20499;-67
2022/07/11 05:07:15;;;;;;;;;;;16.70;99.90;;;;;;5044111;28;19974;-68
2022/07/11 05:09:42;;;;;;;;;;;16.70;99.90;;;;;;5034388;28;19924;-67
2022/07/11 05:12:09;;;;;;;;;;;16.70;99.90;;;;;;5049498;28;19928;-67
2022/07/11 05:14:36;;;;;;;;;;;16.70;99.90;;;;;;5054622;28;20296;-68
2022/07/11 05:17:02;;;;;;;;;;;16.80;99.90;;;;;;5070964;28;20391;-66
2022/07/11 05:19:29;;;;;;;;;;;17.00;99.90;;;;;;5068913;28;19925;-67
2022/07/11 05:21:57;;;;;;;;;;;17.00;99.90;;;;;;5054433;28;19928;-66
2022/07/11 05:24:25;;;;;;;;;;;16.80;99.90;;;;;;5054618;28;20348;-65
2022/07/11 05:26:51;;;;;;;;;;;16.90;99.90;;;;;;5054196;28;19924;-66
2022/07/11 05:29:18;;;;;;;;;;;17.00;99.90;;;;;;5053956;28;20351;-66
2022/07/11 05:31:50;;;;;;;;;;;17.00;99.90;;;;;;5054300;28;19928;-69
2022/07/11 05:34:17;;;;;;;;;;;17.10;99.90;;;;;;5054222;28;19931;-66
2022/07/11 05:36:44;;;;;;;;;;;17.10;99.90;;;;;;5054021;28;19932;-66
2022/07/11 05:39:12;;;;;;;;;;;17.10;99.90;;;;;;5070577;28;20020;-67
2022/07/11 05:41:39;;;;;;;;;;;17.20;99.90;;;;;;5053956;28;19925;-68
2022/07/11 05:44:06;;;;;;;;;;;17.20;99.90;;;;;;5070791;28;19924;-67
2022/07/11 05:46:33;;;;;;;;;;;17.30;99.90;;;;;;5070803;28;20358;-67
2022/07/11 05:48:59;;;;;;;;;;;17.20;99.90;;;;;;5070388;28;20395;-66
2022/07/11 05:51:26;;;;;;;;;;;17.30;99.90;;;;;;5070812;28;19924;-67
2022/07/11 05:53:53;;;;;;;;;;;17.40;99.90;;;;;;5070551;28;19924;-66
2022/07/11 05:56:21;;;;;;;;;;;17.30;99.90;;;;;;5071124;28;19924;-66
2022/07/11 05:58:48;;;;;;;;;;;17.40;99.90;;;;;;5054100;28;19932;-65
2022/07/11 06:01:14;;;;;;;;;;;17.40;99.90;;;;;;5074632;28;19928;-67
2022/07/11 06:03:41;;;;;;;;;;;17.50;99.90;;;;;;5074633;28;19946;-65
2022/07/11 06:06:10;;;;;;;;;;;17.50;99.90;;;;;;5074392;28;19936;-67
2022/07/11 06:08:42;;;;;;;;;;;17.50;99.90;;;;;;5074568;28;19924;-67
2022/07/11 06:11:10;;;;;;;;;;;17.50;99.90;;;;;;5048475;28;19925;-67
2022/07/11 06:13:39;;;;;;;;;;;17.50;99.90;;;;;;5038179;28;19925;-68
2022/07/11 06:16:06;;;;;;;;;;;17.50;99.90;;;;;;5037736;28;20346;-66
2022/07/11 06:18:33;;;;;;;;;;;17.60;99.90;;;;;;5037508;28;19959;-66
2022/07/11 06:21:00;;;;;;;;;;;17.70;99.90;;;;;;5037424;28;19931;-66
2022/07/11 06:23:27;;;;;;;;;;;17.70;99.90;;;;;;5037566;28;20289;-66
2022/07/11 06:25:54;;;;;;;;;;;17.70;99.90;;;;;;5037832;28;19925;-66
2022/07/11 06:28:21;;;;;;;;;;;17.80;99.90;;;;;;5037407;28;20354;-66
2022/07/11 06:30:49;;;;;;;;;;;17.80;99.90;;;;;;5037230;28;19929;-67
2022/07/11 06:33:16;;;;;;;;;;;17.80;99.90;;;;;;5037350;28;19936;-67
2022/07/11 06:35:43;;;;;;;;;;;17.90;99.90;;;;;;5037338;28;20455;-67
2022/07/11 06:38:10;;;;;;;;;;;17.80;99.90;;;;;;5037513;28;20343;-66
2022/07/11 06:40:36;;;;;;;;;;;17.90;99.90;;;;;;5037157;28;19929;-67
2022/07/11 06:43:04;;;;;;;;;;;17.80;99.90;;;;;;5037248;28;19931;-66
2022/07/11 06:45:31;;;;;;;;;;;17.90;99.90;;;;;;5037184;28;19925;-66
2022/07/11 06:48:00;;;;;;;;;;;18.00;99.90;;;;;;5037076;28;19994;-66
2022/07/11 06:50:26;;;;;;;;;;;18.00;99.90;;;;;;5037148;28;19972;-66
2022/07/11 06:52:53;;;;;;;;;;;17.90;99.90;;;;;;5037147;28;19978;-66
2022/07/11 06:55:20;;;;;;;;;;;17.90;99.90;;;;;;5037095;28;19979;-67
2022/07/11 06:57:47;;;;;;;;;;;18.00;99.90;;;;;;5037160;28;20350;-67
2022/07/11 07:00:14;;;;;;;;;;;18.10;99.90;;;;;;5036649;28;19932;-67
2022/07/11 07:02:40;;;;;;;;;;;18.20;99.90;;;;;;5036940;28;19925;-67
2022/07/11 07:05:09;;;;;;;;;;;18.20;99.90;;;;;;5036983;28;19925;-66
2022/07/11 07:07:36;;;;;;;;;;;18.30;99.90;;;;;;5036404;28;19924;-66
2022/07/11 07:10:03;;;;;;;;;;;18.30;99.90;;;;;;5036263;28;19929;-66
2022/07/11 07:12:30;;;;;;;;;;;18.50;99.90;;;;;;5057015;28;19928;-67
2022/07/11 07:14:57;;;;;;;;;;;18.60;99.90;;;;;;5073451;28;19924;-66
2022/07/11 07:17:23;;;;;;;;;;;18.70;99.90;;;;;;5073371;28;19928;-67
2022/07/11 07:19:50;;;;;;;;;;;18.70;99.90;;;;;;5072996;28;19932;-67
2022/07/11 07:22:18;;;;;;;;;;;18.80;99.90;;;;;;5073050;28;20403;-67
2022/07/11 07:24:45;;;;;;;;;;;18.70;99.90;;;;;;5056133;28;20368;-68
2022/07/11 07:27:12;;;;;;;;;;;18.70;99.90;;;;;;5073479;28;19964;-67
2022/07/11 07:29:39;;;;;;;;;;;18.80;99.90;;;;;;5072801;28;19979;-67
2022/07/11 07:32:06;;;;;;;;;;;18.90;99.90;;;;;;5072969;28;19924;-66
2022/07/11 07:34:33;;;;;;;;;;;18.90;99.90;;;;;;5056442;28;20391;-66
2022/07/11 07:37:00;;;;;;;;;;;18.80;99.90;;;;;;5056136;28;19936;-67
2022/07/11 07:39:28;;;;;;;;;;;18.80;99.90;;;;;;5072434;28;19924;-66
2022/07/11 07:41:55;;;;;;;;;;;19.00;99.90;;;;;;5056462;28;20395;-66
2022/07/11 07:44:21;;;;;;;;;;;19.00;99.90;;;;;;5072728;28;19924;-66
2022/07/11 07:46:48;;;;;;;;;;;19.10;99.90;;;;;;5072984;28;19931;-66
2022/07/11 07:49:15;;;;;;;;;;;19.10;99.90;;;;;;5073158;28;19925;-66
2022/07/11 07:51:42;;;;;;;;;;;19.10;99.90;;;;;;5072913;28;19925;-66
2022/07/11 07:54:08;;;;;;;;;;;19.20;99.90;;;;;;5055875;28;19936;-66
2022/07/11 07:56:37;;;;;;;;;;;19.20;99.90;;;;;;5056049;28;19974;-66
2022/07/11 07:59:03;;;;;;;;;;;19.30;99.90;;;;;;5055569;28;19924;-67
2022/07/11 08:01:35;;;;;;;;;;;19.20;99.90;;;;;;5088845;22;19926;-69
2022/07/11 08:04:02;;;;;;;;;;;19.30;99.90;;;;;;5033825;28;19929;-68
2022/07/11 08:06:28;;;;;;;;;;;19.40;99.90;;;;;;5033275;28;19925;-68
2022/07/11 08:08:55;;;;;;;;;;;19.50;99.90;;;;;;5031956;28;20495;-68
2022/07/11 08:11:22;;;;;;;;;;;19.70;99.90;;;;;;5032148;28;20450;-68
2022/07/11 08:13:50;;;;;;;;;;;19.80;99.90;;;;;;5032286;28;19957;-68
2022/07/11 08:16:16;;;;;;;;;;;19.60;99.90;;;;;;5032167;28;19964;-69
2022/07/11 08:18:43;;;;;;;;;;;19.60;99.90;;;;;;5032243;28;20462;-68
2022/07/11 08:21:10;;;;;;;;;;;19.50;99.90;;;;;;5032269;28;20404;-68
2022/07/11 08:23:36;;;;;;;;;;;19.50;99.90;;;;;;5032726;28;19925;-68
2022/07/11 08:26:03;;;;;;;;;;;19.60;99.90;;;;;;5032432;28;19960;-68
2022/07/11 08:28:30;;;;;;;;;;;19.70;99.90;;;;;;5032081;28;19964;-68
2022/07/11 08:30:57;;;;;;;;;;;20.00;99.90;;;;;;5031758;28;20007;-68
2022/07/11 08:33:24;;;;;;;;;;;20.20;99.90;;;;;;5032049;28;19925;-68
2022/07/11 08:35:51;;;;;;;;;;;20.60;99.90;;;;;;5031871;28;19960;-69
2022/07/11 08:38:17;;;;;;;;;;;20.80;99.90;;;;;;5031917;28;20016;-68
2022/07/11 08:40:44;;;;;;;;;;;20.90;99.90;;;;;;5031662;28;19999;-69
2022/07/11 08:43:14;;;;;;;;;;;20.90;99.90;;;;;;5033048;28;20024;-69
2022/07/11 08:45:41;;;;;;;;;;;21.10;99.90;;;;;;5031673;28;19925;-68
2022/07/11 08:48:09;;;;;;;;;;;21.10;99.90;;;;;;5032835;28;20020;-69
2022/07/11 08:50:36;;;;;;;;;;;21.10;99.90;;;;;;5031331;28;19925;-69
2022/07/11 08:53:04;;;;;;;;;;;20.90;99.90;;;;;;5031759;28;20019;-68
2022/07/11 08:55:31;;;;;;;;;;;20.60;99.90;;;;;;5031443;28;20023;-68
2022/07/11 08:57:58;;;;;;;;;;;20.60;99.90;;;;;;5031179;28;20023;-68
2022/07/11 09:00:24;;;;;;;;;;;20.50;99.90;;;;;;5031241;28;20392;-69
2022/07/11 09:02:53;;;;;;;;;;;20.60;99.90;;;;;;5031383;28;20015;-69
2022/07/11 09:05:21;;;;;;;;;;;20.70;99.90;;;;;;5031549;28;19932;-68
2022/07/11 09:07:49;;;;;;;;;;;20.90;99.90;;;;;;5031016;28;20400;-68
2022/07/11 09:10:16;;;;;;;;;;;21.10;99.90;;;;;;5031273;28;20008;-68
2022/07/11 09:12:57;;;;;;;;;;;21.10;99.90;;;;;;5032761;28;19971;-68
2022/07/11 09:15:31;;;;;;;;;;;21.00;99.90;;;;;;5031395;28;19932;-68
2022/07/11 09:17:58;;;;;;;;;;;20.80;99.90;;;;;;5031104;28;19925;-68
2022/07/11 09:25:19;;;;;;;;;;;20.40;99.90;;;;;;5032173;28;19926;-68
2022/07/11 09:26:05;;;;;;;;;;;20.30;99.90;;;;;;5030890;28;20312;-69
2022/07/11 09:28:31;;;;;;;;;;;20.30;99.90;;;;;;5030943;28;20476;-68
2022/07/11 09:30:58;;;;;;;;;;;20.20;99.90;;;;;;5030927;28;19963;-70
2022/07/11 09:33:25;;;;;;;;;;;20.20;99.90;;;;;;5030323;28;19932;-69
2022/07/11 09:35:54;;;;;;;;;;;20.10;99.90;;;;;;5030616;28;20352;-68
2022/07/11 09:38:22;;;;;;;;;;;20.00;99.90;;;;;;5031401;28;19971;-68
2022/07/11 09:40:49;;;;;;;;;;;20.00;99.90;;;;;;5030918;28;19925;-68
2022/07/11 09:43:24;;;;;;;;;;;20.00;99.90;;;;;;5030937;28;19972;-68
2022/07/11 09:45:50;;;;;;;;;;;20.00;99.90;;;;;;5032513;28;19964;-68
2022/07/11 09:48:17;;;;;;;;;;;19.90;99.90;;;;;;5030792;28;19925;-68
2022/07/11 09:51:00;;;;;;;;;;;20.00;99.90;;;;;;5030822;28;19956;-68
2022/07/11 09:53:26;;;;;;;;;;;19.90;99.90;;;;;;5031012;28;19932;-68
2022/07/11 09:55:53;;;;;;;;;;;19.80;99.90;;;;;;5031250;28;20044;-69
2022/07/11 09:58:21;;;;;;;;;;;19.60;99.90;;;;;;5030500;28;20012;-69
2022/07/11 10:00:48;;;;;;;;;;;19.80;99.90;;;;;;5031986;28;20450;-69
2022/07/11 10:03:15;;;;;;;;;;;19.90;99.90;;;;;;5030725;28;19933;-68
2022/07/11 10:05:42;;;;;;;;;;;20.10;99.90;;;;;;5031008;28;19929;-68
2022/07/11 10:08:12;;;;;;;;;;;20.30;99.90;;;;;;5030212;28;20462;-68
2022/07/11 10:10:38;;;;;;;;;;;20.30;99.90;;;;;;5030357;28;19933;-68
2022/07/11 10:13:05;;;;;;;;;;;20.50;99.90;;;;;;5030495;28;19925;-68
2022/07/11 10:15:33;;;;;;;;;;;20.40;99.90;;;;;;5030797;28;19925;-69
2022/07/11 10:18:05;;;;;;;;;;;20.20;99.90;;;;;;5030485;28;19925;-68
2022/07/11 10:20:32;;;;;;;;;;;20.30;99.90;;;;;;5030595;28;19925;-68
2022/07/11 10:23:06;;;;;;;;;;;20.30;99.90;;;;;;5030482;28;19929;-69
2022/07/11 10:25:38;;;;;;;;;;;20.20;99.90;;;;;;5030762;28;19948;-69
2022/07/11 10:28:11;;;;;;;;;;;20.20;99.90;;;;;;5030580;28;19929;-68
2022/07/11 10:30:43;;;;;;;;;;;20.10;99.90;;;;;;5030277;28;19929;-69
2022/07/11 10:33:10;;;;;;;;;;;20.00;99.90;;;;;;5030250;28;19929;-68
2022/07/11 10:35:40;;;;;;;;;;;19.90;99.90;;;;;;5030871;28;19979;-69
2022/07/11 10:38:07;;;;;;;;;;;19.90;99.90;;;;;;5030465;28;19925;-68
2022/07/11 10:40:48;;;;;;;;;;;20.00;99.90;;;;;;5030050;28;19925;-68
2022/07/11 10:43:15;;;;;;;;;;;20.00;99.90;;;;;;5030440;28;19995;-68
2022/07/11 10:45:56;;;;;;;;;;;20.10;99.90;;;;;;5031692;28;19926;-69
2022/07/11 10:48:23;;;;;;;;;;;20.20;99.90;;;;;;5033884;28;19925;-70
2022/07/11 10:50:54;;;;;;;;;;;20.00;99.90;;;;;;5033756;28;19929;-68
2022/07/11 10:53:22;;;;;;;;;;;20.10;99.90;;;;;;5033622;28;19975;-68
2022/07/11 10:56:01;;;;;;;;;;;20.20;99.90;;;;;;5033957;28;19925;-71
2022/07/11 10:58:30;;;;;;;;;;;20.30;99.90;;;;;;5033521;28;19932;-71
2022/07/11 11:01:08;;;;;;;;;;;20.50;99.90;;;;;;5033577;28;19925;-68
2022/07/11 11:03:35;;;;;;;;;;;20.70;99.90;;;;;;5033607;28;20019;-68
2022/07/11 11:06:01;;;;;;;;;;;21.00;99.90;;;;;;5033061;28;19987;-69
2022/07/11 11:08:42;;;;;;;;;;;21.30;99.90;;;;;;5033846;28;19925;-69
2022/07/11 11:11:24;;;;;;;;;;;21.60;99.90;;;;;;5033344;28;19925;-69
2022/07/11 11:14:06;;;;;;;;;;;21.50;99.90;;;;;;5032794;28;20012;-69
2022/07/11 11:16:34;;;;;;;;;;;21.30;99.90;;;;;;5032317;28;19931;-68
2022/07/11 11:19:01;;;;;;;;;;;21.10;99.90;;;;;;5033209;28;19948;-68
2022/07/11 11:21:27;;;;;;;;;;;21.00;99.90;;;;;;5033287;28;19975;-68
2022/07/11 11:24:02;;;;;;;;;;;20.70;99.90;;;;;;5033415;28;19956;-69
2022/07/11 11:26:42;;;;;;;;;;;20.40;99.90;;;;;;5033414;28;19931;-69
2022/07/11 11:29:09;;;;;;;;;;;20.30;99.90;;;;;;5033102;28;19979;-68
2022/07/11 11:31:37;;;;;;;;;;;20.10;99.90;;;;;;5033364;28;20389;-69
2022/07/11 11:34:05;;;;;;;;;;;20.10;99.90;;;;;;5033036;28;19926;-68
2022/07/11 11:36:32;;;;;;;;;;;20.20;99.90;;;;;;5033035;28;19925;-68
2022/07/11 11:38:59;;;;;;;;;;;20.30;99.90;;;;;;5032580;28;19979;-67
2022/07/11 11:41:27;;;;;;;;;;;20.60;99.90;;;;;;5032944;28;19968;-68
2022/07/11 11:43:54;;;;;;;;;;;20.70;99.90;;;;;;5033101;28;19925;-68
2022/07/11 11:46:24;;;;;;;;;;;20.70;99.90;;;;;;5033019;28;19933;-67
2022/07/11 11:48:55;;;;;;;;;;;20.70;99.90;;;;;;5032604;28;19932;-66
2022/07/11 11:51:22;;;;;;;;;;;20.60;99.90;;;;;;5032794;28;19929;-71
2022/07/11 11:53:50;;;;;;;;;;;20.70;99.90;;;;;;5032554;28;20300;-69
2022/07/11 11:56:28;;;;;;;;;;;20.70;99.90;;;;;;5032813;28;19929;-69
2022/07/11 11:58:56;;;;;;;;;;;20.70;99.90;;;;;;5032197;28;20020;-68
2022/07/11 12:01:26;;;;;;;;;;;20.60;99.90;;;;;;5032435;28;20376;-69
2022/07/11 12:03:55;;;;;;;;;;;20.60;99.90;;;;;;5032487;28;20274;-69
2022/07/11 12:06:22;;;;;;;;;;;20.60;99.90;;;;;;5031998;28;19925;-68
2022/07/11 12:08:49;;;;;;;;;;;20.70;99.90;;;;;;5032560;28;19929;-69
2022/07/11 12:11:16;;;;;;;;;;;20.80;99.90;;;;;;5033485;28;19961;-68
2022/07/11 12:13:44;;;;;;;;;;;20.90;99.90;;;;;;5032325;28;19925;-68
2022/07/11 12:19:00;;;;;;;;;;;21.20;99.90;;;;;;5032132;28;19935;-69
2022/07/11 12:21:28;;;;;;;;;;;21.20;99.90;;;;;;5032214;28;19925;-69
2022/07/11 12:23:56;;;;;;;;;;;21.30;99.90;;;;;;5031963;28;20278;-69
2022/07/11 12:26:22;;;;;;;;;;;21.30;99.90;;;;;;5032245;28;19972;-68
2022/07/11 12:29:20;;;;;;;;;;;21.30;99.90;;;;;;5031809;28;19925;-69
2022/07/11 12:31:47;;;;;;;;;;;21.00;99.90;;;;;;4937014;29;19949;-68
2022/07/11 12:34:17;;;;;;;;;;;21.00;99.90;;;;;;5009359;28;19948;-68
2022/07/11 12:36:45;;;;;;;;;;;20.90;99.90;;;;;;5031815;28;19929;-69
2022/07/11 12:39:21;;;;;;;;;;;21.00;99.90;;;;;;5031413;28;20040;-69
2022/07/11 12:41:48;;;;;;;;;;;21.00;99.90;;;;;;5032234;28;19929;-69
2022/07/11 12:47:05;;;;;;;;;;;21.40;99.90;;;;;;5031947;28;19921;-68
2022/07/11 12:49:34;;;;;;;;;;;21.50;99.90;;;;;;5031399;28;19975;-68
2022/07/11 12:52:01;;;;;;;;;;;21.70;99.90;;;;;;5031568;28;19925;-68
2022/07/11 12:54:30;;;;;;;;;;;22.00;99.90;;;;;;5031854;28;20016;-69
2022/07/11 12:56:57;;;;;;;;;;;22.10;99.90;;;;;;5031667;28;20031;-68
2022/07/11 12:59:25;;;;;;;;;;;22.30;99.90;;;;;;5031179;28;20019;-69
2022/07/11 13:01:55;;;;;;;;;;;22.50;99.90;;;;;;5031326;28;20470;-69
2022/07/11 13:04:29;;;;;;;;;;;22.70;99.90;;;;;;5031103;28;19925;-69
2022/07/11 13:09:42;;;;;;;;;;;22.80;99.90;;;;;;5030905;28;20011;-69
2022/07/11 13:12:08;;;;;;;;;;;22.70;99.90;;;;;;5031050;28;19932;-69
2022/07/11 13:17:16;;;;;;;;;;;22.80;99.90;;;;;;5018403;28;20316;-68
2022/07/11 13:19:42;;;;;;;;;;;22.70;99.90;;;;;;5030834;28;19929;-70
2022/07/11 13:22:11;;;;;;;;;;;22.50;99.90;;;;;;5031167;28;19929;-69
2022/07/11 13:24:37;;;;;;;;;;;22.80;99.90;;;;;;5030971;28;19979;-69
2022/07/11 13:27:05;;;;;;;;;;;22.80;99.90;;;;;;5031619;28;19961;-68
2022/07/11 13:29:31;;;;;;;;;;;22.90;99.90;;;;;;5031989;28;19968;-69
2022/07/11 13:31:58;;;;;;;;;;;22.70;99.90;;;;;;5031222;28;20297;-66
2022/07/11 13:34:25;;;;;;;;;;;22.60;99.90;;;;;;5030804;28;19925;-69
2022/07/11 13:36:52;;;;;;;;;;;22.60;99.90;;;;;;5031050;28;19976;-69
2022/07/11 13:39:20;;;;;;;;;;;22.70;99.90;;;;;;5030787;28;19929;-69
2022/07/11 13:41:47;;;;;;;;;;;22.60;99.90;;;;;;5031358;28;19929;-69
2022/07/11 13:44:14;;;;;;;;;;;22.70;99.90;;;;;;5031090;28;20019;-68
2022/07/11 13:46:41;;;;;;;;;;;22.60;99.90;;;;;;5031020;28;19925;-68
2022/07/11 13:49:07;;;;;;;;;;;22.30;99.90;;;;;;5030709;28;19929;-68
2022/07/11 13:51:34;;;;;;;;;;;22.20;99.90;;;;;;5031053;28;19957;-70
2022/07/11 13:54:01;;;;;;;;;;;22.60;99.90;;;;;;5030829;28;19975;-68
2022/07/11 13:56:29;;;;;;;;;;;22.60;99.90;;;;;;5031063;28;19948;-69
2022/07/11 13:58:56;;;;;;;;;;;22.90;99.90;;;;;;5030534;28;19925;-68
2022/07/11 14:03:58;;;;;;;;;;;23.40;99.90;;;;;;5021384;28;19930;-69
2022/07/11 14:06:24;;;;;;;;;;;23.50;99.90;;;;;;5007591;28;20360;-69
2022/07/11 14:08:51;;;;;;;;;;;23.40;99.90;;;;;;4992362;28;19926;-70
2022/07/11 14:11:18;;;;;;;;;;;23.30;99.90;;;;;;4991469;28;20104;-69
2022/07/11 14:13:46;;;;;;;;;;;23.30;99.90;;;;;;4992551;28;19953;-69
2022/07/11 14:16:12;;;;;;;;;;;23.30;99.90;;;;;;5008027;28;20420;-69
2022/07/11 14:18:41;;;;;;;;;;;23.20;99.90;;;;;;4991095;28;20025;-69
2022/07/11 14:21:08;;;;;;;;;;;22.90;99.90;;;;;;4993019;28;20020;-69
2022/07/11 14:23:34;;;;;;;;;;;22.70;99.90;;;;;;4994877;28;19981;-69
2022/07/11 14:26:05;;;;;;;;;;;22.40;99.90;;;;;;4994927;28;20346;-69
2022/07/11 14:28:32;;;;;;;;;;;22.20;99.90;;;;;;4994974;28;20401;-69
2022/07/11 14:31:00;;;;;;;;;;;22.20;99.90;;;;;;5010981;28;19933;-70
2022/07/11 14:33:27;;;;;;;;;;;22.10;99.90;;;;;;5011233;28;19930;-69
2022/07/11 14:35:54;;;;;;;;;;;22.20;99.90;;;;;;4994807;28;19926;-69